Time;durP1;ratioP1;P1;durP2;ratioP2;P2;SDS_P1;SDS_P2;PMS_P1;PMS_P2;Temp;Humidity;BMP_temperature;BMP_pressure;BME280_temperature;BME280_humidity;BME280_pressure;Samples;Min_cycle;Max_cycle;Signal;HPM_P1;HPM_P2
2022/06/24 00:00:29;;;;;;;22.35;8.90;;;;;;;20.98;100.00;100456.41;5052021;28;20029;-63
2022/06/24 00:02:55;;;;;;;22.48;9.25;;;;;;;20.87;100.00;100456.88;5052463;28;20119;-64
2022/06/24 00:05:20;;;;;;;23.15;10.27;;;;;;;20.64;100.00;100466.78;5052247;28;20052;-63
2022/06/24 00:07:51;;;;;;;23.30;10.45;;;;;;;20.43;100.00;100508.88;5052162;28;20491;-65
2022/06/24 00:10:43;;;;;;;25.48;11.70;;;;;;;19.90;100.00;100558.38;5052100;28;20032;-63
2022/06/24 00:13:08;;;;;;;25.95;13.52;;;;;;;19.47;100.00;100576.94;5048790;28;20037;-64
2022/06/24 00:15:36;;;;;;;27.20;14.57;;;;;;;19.22;100.00;100584.13;5052392;28;20108;-64
2022/06/24 00:18:12;;;;;;;36.05;22.00;;;;;;;18.80;100.00;100556.97;5051828;28;20029;-70
2022/06/24 00:20:42;;;;;;;49.08;29.95;;;;;;;18.71;100.00;100581.38;5049333;28;20021;-65
2022/06/24 00:23:08;;;;;;;53.38;35.88;;;;;;;18.72;100.00;100607.19;5055598;28;20381;-63
2022/06/24 00:25:36;;;;;;;55.70;37.50;;;;;;;18.73;100.00;100621.47;5055669;28;20055;-67
2022/06/24 00:28:10;;;;;;;66.82;40.20;;;;;;;18.89;100.00;100627.25;5051590;28;20426;-65
2022/06/24 00:30:42;;;;;;;58.83;42.40;;;;;;;18.73;100.00;100630.38;5051726;28;20039;-65
2022/06/24 00:33:14;;;;;;;64.47;44.30;;;;;;;18.68;100.00;100629.63;5055488;28;20420;-64
2022/06/24 00:35:46;;;;;;;60.13;41.65;;;;;;;18.73;100.00;100616.13;5055773;28;20032;-64
2022/06/24 00:38:25;;;;;;;48.22;31.67;;;;;;;18.65;100.00;100627.06;5055339;28;20025;-64
2022/06/24 00:41:04;;;;;;;39.70;23.67;;;;;;;18.56;100.00;100654.13;5055497;28;20037;-64
2022/06/24 00:43:36;;;;;;;32.17;18.38;;;;;;;18.33;100.00;100655.72;5055181;28;20025;-63
2022/06/24 00:46:17;;;;;;;27.45;15.50;;;;;;;18.18;100.00;100661.56;5055349;28;20025;-67
2022/06/24 00:48:55;;;;;;;29.20;16.33;;;;;;;17.99;100.00;100661.22;5052457;28;20128;-63
2022/06/24 00:51:22;;;;;;;29.42;17.38;;;;;;;18.01;100.00;100640.66;5055163;28;20029;-64
2022/06/24 00:53:50;;;;;;;26.60;12.80;;;;;;;18.00;100.00;100620.19;5054775;28;20429;-64
2022/06/24 00:56:18;;;;;;;22.10;9.48;;;;;;;17.67;100.00;100615.75;5054852;28;20545;-67
2022/06/24 00:58:53;;;;;;;22.42;10.15;;;;;;;17.60;100.00;100633.78;5055308;28;20072;-63
2022/06/24 01:01:30;;;;;;;21.15;9.10;;;;;;;17.35;100.00;100622.00;5055303;28;20110;-65
2022/06/24 01:03:57;;;;;;;21.23;8.50;;;;;;;17.27;100.00;100619.56;5054797;28;20060;-63
2022/06/24 01:06:24;;;;;;;19.95;8.38;;;;;;;17.34;100.00;100610.41;5054686;28;20028;-65
2022/06/24 01:08:49;;;;;;;21.63;7.30;;;;;;;17.25;100.00;100616.88;5054715;28;20063;-63
2022/06/24 01:11:23;;;;;;;18.40;6.32;;;;;;;17.13;100.00;100605.69;5054604;28;20411;-63
2022/06/24 01:13:48;;;;;;;18.08;6.13;;;;;;;16.94;100.00;100592.81;5054522;28;20017;-64
2022/06/24 01:16:13;;;;;;;18.48;6.13;;;;;;;17.01;100.00;100580.19;5054729;28;20035;-63
2022/06/24 01:18:39;;;;;;;16.45;4.88;;;;;;;16.85;100.00;100566.34;5054531;28;20033;-62
2022/06/24 01:21:04;;;;;;;16.00;4.82;;;;;;;16.85;100.00;100556.53;5054358;28;20470;-63
2022/06/24 01:23:29;;;;;;;14.25;4.63;;;;;;;16.73;100.00;100559.50;5054816;28;20029;-63
2022/06/24 01:25:55;;;;;;;12.75;3.78;;;;;;;16.48;100.00;100567.25;5054544;28;20023;-63
2022/06/24 01:28:20;;;;;;;14.32;4.40;;;;;;;16.44;100.00;100557.56;5054258;28;20029;-64
2022/06/24 01:30:45;;;;;;;14.20;4.28;;;;;;;16.33;100.00;100555.16;5054367;28;20476;-63
2022/06/24 01:33:11;;;;;;;14.52;4.40;;;;;;;16.52;100.00;100561.78;5053294;28;20127;-63
2022/06/24 01:35:36;;;;;;;12.88;4.15;;;;;;;16.37;100.00;100562.19;5054189;28;20037;-63
2022/06/24 01:38:01;;;;;;;14.80;4.28;;;;;;;16.26;100.00;100557.09;5050642;28;20021;-63
2022/06/24 01:40:27;;;;;;;13.57;4.38;;;;;;;16.43;100.00;100561.16;5054366;28;20112;-63
2022/06/24 01:42:52;;;;;;;12.55;3.95;;;;;;;16.37;100.00;100557.72;5054513;28;20116;-62
2022/06/24 01:45:17;;;;;;;14.00;4.15;;;;;;;16.27;100.00;100556.19;5054051;28;20025;-63
2022/06/24 01:47:43;;;;;;;15.77;4.20;;;;;;;16.27;100.00;100534.84;5053746;28;20095;-63
2022/06/24 01:50:08;;;;;;;12.80;4.13;;;;;;;16.13;100.00;100527.16;5053984;28;20566;-63
2022/06/24 01:52:33;;;;;;;13.43;3.80;;;;;;;16.19;100.00;100520.81;5053810;28;20167;-62
2022/06/24 01:54:59;;;;;;;11.95;3.67;;;;;;;16.13;100.00;100519.16;5053990;28;20496;-63
2022/06/24 01:57:25;;;;;;;8.85;3.20;;;;;;;16.05;100.00;100526.50;5053834;28;20052;-63
2022/06/24 01:59:51;;;;;;;11.93;3.50;;;;;;;16.08;100.00;100521.09;5053602;28;20032;-63
2022/06/24 02:02:16;;;;;;;11.43;3.33;;;;;;;16.03;100.00;100523.88;5053725;28;20021;-63
2022/06/24 02:04:44;;;;;;;8.38;3.03;;;;;;;15.96;100.00;100521.34;5052805;28;20037;-62
2022/06/24 02:07:10;;;;;;;7.35;2.95;;;;;;;16.02;100.00;100524.75;5053563;28;20025;-62
2022/06/24 02:13:26;;;;;;;6.53;2.83;;;;;;;15.95;100.00;100525.81;5053577;28;20033;-62
2022/06/24 02:15:04;;;;;;;8.57;3.13;;;;;;;16.08;100.00;100515.75;5050034;28;20545;-62
2022/06/24 02:17:30;;;;;;;8.45;3.17;;;;;;;16.01;100.00;100517.66;5053465;28;20017;-62
2022/06/24 02:19:56;;;;;;;11.20;3.40;;;;;;;16.09;100.00;100509.50;5053263;28;20061;-63
2022/06/24 02:22:21;;;;;;;10.52;3.35;;;;;;;16.06;100.00;100520.22;5053224;28;20040;-63
2022/06/24 02:24:46;;;;;;;11.20;3.70;;;;;;;15.93;100.00;100532.09;5053509;28;20025;-62
2022/06/24 02:27:12;;;;;;;11.45;3.90;;;;;;;15.90;100.00;100535.72;5053478;28;20031;-63
2022/06/24 02:29:37;;;;;;;13.02;4.30;;;;;;;16.16;100.00;100521.78;5053244;28;20025;-63
2022/06/24 02:32:03;;;;;;;12.55;4.50;;;;;;;16.36;100.00;100529.28;5053350;28;20090;-62
2022/06/24 02:34:28;;;;;;;13.30;4.70;;;;;;;16.62;100.00;100524.22;5053513;28;20115;-62
2022/06/24 02:36:53;;;;;;;15.07;4.57;;;;;;;16.54;100.00;100521.72;5053091;28;20051;-63
2022/06/24 02:39:18;;;;;;;14.43;4.90;;;;;;;16.62;100.00;100518.88;5053168;28;20060;-62
2022/06/24 02:41:44;;;;;;;14.68;5.30;;;;;;;16.65;100.00;100503.66;5052847;28;20387;-62
2022/06/24 02:44:09;;;;;;;15.07;5.00;;;;;;;16.68;100.00;100498.25;5053266;28;20055;-62
2022/06/24 02:46:34;;;;;;;16.02;5.28;;;;;;;16.65;100.00;100492.97;5052962;28;20039;-62
2022/06/24 02:49:00;;;;;;;15.60;5.05;;;;;;;16.67;100.00;100491.16;5052657;28;20060;-63
2022/06/24 02:51:25;;;;;;;15.77;5.10;;;;;;;16.52;100.00;100495.09;5052846;28;20025;-62
2022/06/24 02:53:50;;;;;;;14.50;4.90;;;;;;;16.66;100.00;100497.41;5052929;28;20071;-63
2022/06/24 02:56:16;;;;;;;16.10;5.00;;;;;;;16.54;100.00;100489.72;5052618;28;20484;-62
2022/06/24 02:58:42;;;;;;;15.52;4.90;;;;;;;16.55;100.00;100491.47;5052784;28;20108;-62
2022/06/24 03:01:07;;;;;;;16.08;5.00;;;;;;;16.53;100.00;100486.19;5052991;28;20419;-62
2022/06/24 03:03:33;;;;;;;14.85;4.97;;;;;;;16.64;100.00;100485.88;5052871;28;20033;-62
2022/06/24 03:05:59;;;;;;;17.63;5.70;;;;;;;16.62;100.00;100478.88;5053053;28;20033;-63
2022/06/24 03:08:26;;;;;;;15.95;5.38;;;;;;;16.53;100.00;100475.50;5052857;28;20071;-62
2022/06/24 03:10:52;;;;;;;17.02;5.70;;;;;;;16.68;100.00;100478.69;5052981;28;20080;-63
2022/06/24 03:13:17;;;;;;;18.83;6.28;;;;;;;16.64;100.00;100466.34;5052509;28;20029;-62
2022/06/24 03:15:43;;;;;;;17.48;6.03;;;;;;;16.56;100.00;100467.41;5052492;28;20050;-64
2022/06/24 03:18:09;;;;;;;17.48;6.20;;;;;;;16.50;100.00;100456.06;5052628;28;20104;-63
2022/06/24 03:20:35;;;;;;;17.83;6.38;;;;;;;16.52;100.00;100467.56;5052424;28;20033;-63
2022/06/24 03:23:00;;;;;;;18.00;6.75;;;;;;;16.59;100.00;100469.13;5052340;28;20036;-63
2022/06/24 03:25:25;;;;;;;18.65;6.60;;;;;;;16.63;100.00;100461.91;5052497;28;20542;-64
2022/06/24 03:27:51;;;;;;;18.42;6.63;;;;;;;16.68;100.00;100463.53;5052359;28;20025;-65
2022/06/24 03:30:16;;;;;;;18.10;6.50;;;;;;;16.64;100.00;100453.88;5052393;28;20058;-66
2022/06/24 03:32:42;;;;;;;18.60;6.80;;;;;;;16.56;100.00;100450.56;5052734;28;20112;-62
2022/06/24 03:35:08;;;;;;;17.67;7.20;;;;;;;16.51;100.00;100460.44;5052304;28;20045;-62
2022/06/24 03:37:34;;;;;;;19.25;7.45;;;;;;;16.58;100.00;100455.84;5048156;28;20021;-63
2022/06/24 03:40:00;;;;;;;19.75;7.57;;;;;;;16.51;100.00;100452.44;5052571;28;20040;-62
2022/06/24 03:42:26;;;;;;;18.88;7.07;;;;;;;16.51;100.00;100452.44;5052472;28;20139;-65
2022/06/24 03:44:52;;;;;;;18.98;7.13;;;;;;;16.57;100.00;100436.28;5052148;28;20052;-62
2022/06/24 03:47:18;;;;;;;18.92;7.53;;;;;;;16.72;100.00;100445.69;5052203;28;20045;-63
2022/06/24 03:49:43;;;;;;;18.77;7.75;;;;;;;16.70;100.00;100448.38;5052092;28;20119;-63
2022/06/24 03:52:09;;;;;;;19.85;7.97;;;;;;;16.72;100.00;100451.00;5052318;28;20025;-64
2022/06/24 03:54:35;;;;;;;18.92;7.72;;;;;;;16.72;100.00;100457.22;5052203;28;20464;-63
2022/06/24 03:57:02;;;;;;;20.10;7.68;;;;;;;16.73;100.00;100466.09;5054955;28;20036;-63
2022/06/24 03:59:27;;;;;;;18.83;7.70;;;;;;;16.54;100.00;100471.94;5056341;28;20116;-62
2022/06/24 04:01:53;;;;;;;19.17;8.02;;;;;;;16.41;100.00;100477.63;5055907;28;20029;-63
2022/06/24 04:04:18;;;;;;;18.77;7.38;;;;;;;16.21;100.00;100477.22;5055821;28;20478;-62
2022/06/24 04:06:44;;;;;;;19.42;8.30;;;;;;;16.14;100.00;100480.06;5055398;28;20033;-62
2022/06/24 04:09:09;;;;;;;19.83;8.60;;;;;;;16.20;100.00;100487.91;5055571;28;20037;-62
2022/06/24 04:11:34;;;;;;;21.35;9.07;;;;;;;16.28;100.00;100495.72;5056124;28;20104;-62
2022/06/24 04:14:01;;;;;;;21.13;9.63;;;;;;;16.19;100.00;100512.81;5055841;28;20396;-62
2022/06/24 04:16:26;;;;;;;21.52;9.50;;;;;;;16.13;100.00;100508.50;5055707;28;20028;-62
2022/06/24 04:18:53;;;;;;;21.98;10.40;;;;;;;16.12;100.00;100513.88;5055882;28;20032;-62
2022/06/24 04:21:18;;;;;;;21.63;10.65;;;;;;;16.19;100.00;100515.47;5056057;28;20025;-62
2022/06/24 04:23:45;;;;;;;22.83;11.52;;;;;;;16.20;100.00;100510.09;5055474;28;20035;-63
2022/06/24 04:26:12;;;;;;;22.23;11.48;;;;;;;16.27;100.00;100507.31;5055366;28;20025;-62
2022/06/24 04:28:37;;;;;;;22.52;11.73;;;;;;;16.31;100.00;100500.97;5055968;28;20048;-62
2022/06/24 04:31:03;;;;;;;24.58;12.23;;;;;;;16.31;100.00;100498.28;5055483;28;20067;-62
2022/06/24 04:33:29;;;;;;;23.67;11.95;;;;;;;16.36;100.00;100507.94;5055401;28;20141;-62
2022/06/24 04:35:54;;;;;;;24.17;12.35;;;;;;;16.28;100.00;100509.94;5055630;28;20080;-62
2022/06/24 04:38:20;;;;;;;24.42;12.60;;;;;;;16.28;100.00;100509.03;5055747;28;20032;-64
2022/06/24 04:40:46;;;;;;;24.52;12.73;;;;;;;16.34;100.00;100499.13;5055058;28;20025;-62
2022/06/24 04:43:12;;;;;;;25.10;13.52;;;;;;;16.41;100.00;100498.94;5055327;28;20052;-66
2022/06/24 04:45:38;;;;;;;25.20;13.73;;;;;;;16.42;100.00;100500.72;5055286;28;20029;-62
2022/06/24 04:48:04;;;;;;;24.85;13.82;;;;;;;16.52;100.00;100499.56;5055198;28;20059;-63
2022/06/24 04:50:29;;;;;;;25.60;14.20;;;;;;;16.50;100.00;100490.75;5055252;28;20056;-63
2022/06/24 04:52:55;;;;;;;25.75;14.32;;;;;;;16.60;100.00;100497.59;5054960;28;20032;-63
2022/06/24 04:55:21;;;;;;;25.77;14.20;;;;;;;16.65;100.00;100502.78;5055300;28;20024;-62
2022/06/24 04:57:47;;;;;;;24.70;14.38;;;;;;;16.64;100.00;100495.69;5054901;28;20150;-66
2022/06/24 05:00:13;;;;;;;25.52;15.25;;;;;;;16.65;100.00;100492.97;5054794;28;20515;-62
2022/06/24 05:02:39;;;;;;;25.77;14.63;;;;;;;16.70;100.00;100496.41;5055140;28;20361;-63
2022/06/24 05:05:05;;;;;;;27.52;14.93;;;;;;;16.72;100.00;100504.38;5050708;28;20075;-64
2022/06/24 05:07:31;;;;;;;26.58;15.63;;;;;;;16.81;100.00;100500.59;5053335;28;20464;-63
2022/06/24 05:09:56;;;;;;;26.60;14.80;;;;;;;16.85;100.00;100504.94;5054665;28;20116;-64
2022/06/24 05:12:22;;;;;;;24.27;13.82;;;;;;;16.77;100.00;100498.91;5054807;28;20057;-63
2022/06/24 05:14:47;;;;;;;24.90;14.52;;;;;;;16.80;100.00;100506.84;5054877;28;20052;-66
2022/06/24 05:17:13;;;;;;;24.27;14.07;;;;;;;16.74;100.00;100513.22;5054830;28;20033;-63
2022/06/24 05:19:38;;;;;;;25.90;14.95;;;;;;;16.67;100.00;100507.19;5054505;28;20025;-62
2022/06/24 05:22:04;;;;;;;26.60;14.90;;;;;;;16.71;100.00;100507.97;5054426;28;20029;-62
2022/06/24 05:24:29;;;;;;;26.35;14.35;;;;;;;16.79;100.00;100508.66;5054628;28;20037;-62
2022/06/24 05:26:55;;;;;;;25.30;14.88;;;;;;;16.83;100.00;100504.94;5054493;28;20452;-62
2022/06/24 05:29:20;;;;;;;25.63;15.07;;;;;;;16.93;100.00;100508.28;5054121;28;20112;-63
2022/06/24 05:31:46;;;;;;;26.45;15.63;;;;;;;17.06;100.00;100515.03;5054260;28;20021;-62
2022/06/24 05:34:12;;;;;;;27.25;15.80;;;;;;;17.05;100.00;100518.66;5054274;28;20032;-62
2022/06/24 05:36:37;;;;;;;27.92;16.67;;;;;;;17.12;100.00;100521.13;5054597;28;20411;-62
2022/06/24 05:39:05;;;;;;;28.15;17.30;;;;;;;17.08;100.00;100513.22;5054361;28;20075;-62
2022/06/24 05:41:31;;;;;;;27.80;16.83;;;;;;;17.15;100.00;100507.69;5053880;28;20033;-62
2022/06/24 05:43:57;;;;;;;27.27;17.20;;;;;;;17.17;100.00;100511.19;5049595;28;20036;-64
2022/06/24 05:46:22;;;;;;;27.13;16.45;;;;;;;17.16;100.00;100515.66;5050793;28;20051;-63
2022/06/24 05:48:48;;;;;;;26.95;16.88;;;;;;;17.13;100.00;100520.22;5051694;28;20095;-63
2022/06/24 05:51:16;;;;;;;27.92;17.02;;;;;;;17.17;100.00;100521.88;5052650;28;20029;-64
2022/06/24 05:56:28;;;;;;;27.95;17.48;;;;;;;17.20;100.00;100511.13;5052298;28;20044;-68
2022/06/24 05:58:53;;;;;;;26.02;16.88;;;;;;;17.16;100.00;100504.97;5051817;28;20028;-69
2022/06/24 06:01:19;;;;;;;28.13;17.58;;;;;;;17.30;100.00;100512.63;5052121;28;20120;-69
2022/06/24 06:03:44;;;;;;;28.02;17.67;;;;;;;17.54;100.00;100512.81;5052158;28;20029;-66
2022/06/24 06:06:10;;;;;;;28.63;18.45;;;;;;;17.51;100.00;100508.44;5051392;28;20032;-64
2022/06/24 06:08:36;;;;;;;29.20;18.92;;;;;;;17.57;100.00;100510.91;5052077;28;20043;-64
2022/06/24 06:11:10;;;;;;;28.35;18.75;;;;;;;17.48;100.00;100516.53;5050912;28;20045;-63
2022/06/24 06:13:36;;;;;;;29.50;18.75;;;;;;;17.45;100.00;100518.44;5051858;28;20408;-64
2022/06/24 06:16:01;;;;;;;29.63;19.27;;;;;;;17.54;100.00;100516.34;5051478;28;20029;-63
2022/06/24 06:18:26;;;;;;;30.10;19.42;;;;;;;17.60;100.00;100520.63;5051257;28;20075;-64
2022/06/24 06:20:51;;;;;;;33.08;20.63;;;;;;;17.62;100.00;100516.13;5051604;28;20061;-65
2022/06/24 06:23:17;;;;;;;31.52;21.20;;;;;;;17.71;100.00;100521.19;5049971;28;20479;-67
2022/06/24 06:25:42;;;;;;;31.77;21.20;;;;;;;17.64;100.00;100510.75;5051235;28;20028;-65
2022/06/24 06:28:07;;;;;;;32.28;20.88;;;;;;;17.63;100.00;100517.88;5050592;28;20381;-67
2022/06/24 06:30:33;;;;;;;32.67;21.80;;;;;;;17.72;100.00;100514.94;5051435;28;20108;-67
2022/06/24 06:32:58;;;;;;;34.13;22.58;;;;;;;17.83;100.00;100509.25;5051351;28;20140;-66
2022/06/24 06:35:23;;;;;;;35.80;23.33;;;;;;;17.91;100.00;100509.03;5049174;28;20115;-66
2022/06/24 06:37:49;;;;;;;38.40;24.33;;;;;;;17.88;100.00;100525.13;5050319;28;20051;-68
2022/06/24 06:40:14;;;;;;;39.20;24.83;;;;;;;17.79;100.00;100520.94;5051379;28;20025;-63
2022/06/24 06:42:40;;;;;;;42.13;26.00;;;;;;;17.84;100.00;100521.69;5051540;28;20108;-63
2022/06/24 06:45:05;;;;;;;44.15;27.30;;;;;;;17.75;100.00;100522.84;5050978;28;20029;-65
2022/06/24 06:47:31;;;;;;;44.78;27.23;;;;;;;17.73;100.00;100526.50;5050065;28;20037;-65
2022/06/24 06:49:56;;;;;;;42.47;26.65;;;;;;;17.62;100.00;100517.91;5051234;28;20492;-65
2022/06/24 06:52:22;;;;;;;44.58;27.20;;;;;;;17.67;100.00;100516.00;5051094;28;20028;-70
2022/06/24 06:54:47;;;;;;;48.58;28.83;;;;;;;17.81;100.00;100515.56;5050790;28;20112;-64
2022/06/24 06:57:12;;;;;;;47.28;29.83;;;;;;;17.87;100.00;100518.06;5051214;28;20029;-67
2022/06/24 06:59:38;;;;;;;47.67;29.60;;;;;;;17.88;100.00;100501.06;5050719;28;20530;-67
2022/06/24 07:02:03;;;;;;;45.95;28.40;;;;;;;17.79;100.00;100510.25;5050093;28;20540;-67
2022/06/24 07:04:29;;;;;;;44.92;27.05;;;;;;;17.74;100.00;100513.06;5048038;28;20484;-65
2022/06/24 07:06:54;;;;;;;43.40;28.02;;;;;;;17.71;100.00;100513.19;5047539;28;20021;-65
2022/06/24 07:09:19;;;;;;;46.33;29.00;;;;;;;17.73;100.00;100511.31;5048226;28;20029;-66
2022/06/24 07:11:45;;;;;;;54.70;30.88;;;;;;;17.72;100.00;100506.91;5047543;28;20091;-66
2022/06/24 07:14:10;;;;;;;48.97;30.55;;;;;;;17.75;100.00;100509.50;5048653;28;20059;-65
2022/06/24 07:16:36;;;;;;;51.35;32.03;;;;;;;17.83;100.00;100513.72;5049529;28;20021;-64
2022/06/24 07:19:01;;;;;;;52.53;32.45;;;;;;;17.90;100.00;100491.25;5050405;28;20040;-63
2022/06/24 07:21:27;;;;;;;52.42;33.63;;;;;;;18.01;100.00;100491.75;5050499;28;20024;-64
2022/06/24 07:23:52;;;;;;;50.50;33.47;;;;;;;18.14;100.00;100491.38;5049765;28;20043;-64
2022/06/24 07:26:17;;;;;;;52.97;33.00;;;;;;;18.31;100.00;100490.84;5050753;28;20068;-63
2022/06/24 07:28:43;;;;;;;54.78;33.53;;;;;;;18.40;100.00;100491.38;5050192;28;20025;-63
2022/06/24 07:31:19;;;;;;;47.72;31.65;;;;;;;18.37;100.00;100491.50;5052335;28;20025;-64
2022/06/24 07:33:46;;;;;;;49.90;32.15;;;;;;;18.33;100.00;100495.19;5054264;28;20051;-64
2022/06/24 07:36:11;;;;;;;48.08;32.25;;;;;;;18.34;100.00;100494.28;5053941;28;20029;-63
2022/06/24 07:38:37;;;;;;;48.33;32.75;;;;;;;18.40;100.00;100503.91;5054593;28;20116;-63
2022/06/24 07:41:03;;;;;;;45.38;30.70;;;;;;;18.18;100.00;100498.41;5055617;28;20025;-63
2022/06/24 07:43:28;;;;;;;44.70;30.55;;;;;;;18.30;100.00;100516.69;5056311;28;20021;-63
2022/06/24 07:45:54;;;;;;;44.40;30.38;;;;;;;18.19;100.00;100530.44;5056416;28;20025;-63
2022/06/24 07:48:20;;;;;;;44.05;31.30;;;;;;;18.02;100.00;100525.63;5056337;28;20052;-63
2022/06/24 07:50:45;;;;;;;42.78;30.77;;;;;;;17.94;100.00;100533.03;5052090;28;20021;-64
2022/06/24 07:53:10;;;;;;;47.83;32.72;;;;;;;17.86;100.00;100527.88;5056322;28;20106;-62
2022/06/24 07:58:20;;;;;;;59.83;42.95;;;;;;;17.69;100.00;100531.06;5052850;28;20566;-63
2022/06/24 08:00:46;;;;;;;63.67;45.63;;;;;;;17.60;100.00;100525.97;5056007;28;20096;-62
2022/06/24 08:03:11;;;;;;;72.90;49.30;;;;;;;17.57;100.00;100532.28;5056282;28;20021;-63
2022/06/24 08:05:37;;;;;;;68.57;49.38;;;;;;;17.57;100.00;100529.63;5056208;28;20028;-63
2022/06/24 08:08:02;;;;;;;68.63;49.47;;;;;;;17.53;100.00;100530.66;5054457;28;20047;-62
2022/06/24 08:10:29;;;;;;;67.40;48.50;;;;;;;17.62;100.00;100536.63;5055887;28;20029;-63
2022/06/24 08:12:54;;;;;;;67.43;49.50;;;;;;;17.73;100.00;100534.50;5055922;28;20029;-62
2022/06/24 08:15:19;;;;;;;65.50;48.53;;;;;;;17.83;100.00;100532.44;5055692;28;20048;-64
2022/06/24 08:17:45;;;;;;;57.67;44.75;;;;;;;17.86;100.00;100532.34;5056090;28;20060;-64
2022/06/24 08:20:10;;;;;;;50.00;38.90;;;;;;;17.92;100.00;100540.19;5055642;28;20463;-63
2022/06/24 08:22:36;;;;;;;43.30;34.38;;;;;;;17.86;100.00;100527.88;5055522;28;20472;-63
2022/06/24 08:25:02;;;;;;;39.45;30.60;;;;;;;18.06;100.00;100527.28;5055792;28;20032;-63
2022/06/24 08:27:27;;;;;;;33.50;27.00;;;;;;;18.11;100.00;100532.47;5055341;28;20419;-63
2022/06/24 08:29:53;;;;;;;33.58;26.52;;;;;;;18.24;100.00;100527.63;5049917;28;20035;-75
2022/06/24 08:32:18;;;;;;;30.92;22.98;;;;;;;18.32;100.00;100524.69;5053428;28;20155;-71
2022/06/24 08:34:44;;;;;;;28.38;20.95;;;;;;;18.55;100.00;100527.47;5053101;28;20939;-70
2022/06/24 08:37:09;;;;;;;29.80;20.10;;;;;;;19.04;100.00;100519.56;5053841;28;20028;-74
2022/06/24 08:39:35;;;;;;;25.55;16.25;;;;;;;19.40;100.00;100518.28;5052005;28;20036;-70
2022/06/24 08:42:03;;;;;;;25.00;17.23;;;;;;;19.65;100.00;100520.88;5052042;28;20393;-70
2022/06/24 08:44:28;;;;;;;25.58;17.25;;;;;;;19.84;100.00;100523.75;5053357;28;20025;-70
2022/06/24 08:46:53;;;;;;;24.60;16.20;;;;;;;19.79;100.00;100525.72;5053485;28;20075;-69
2022/06/24 08:49:19;;;;;;;25.20;15.48;;;;;;;19.87;100.00;100525.47;5053122;28;20121;-69
2022/06/24 08:51:47;;;;;;;24.05;14.70;;;;;;;20.03;100.00;100515.84;5052939;28;20028;-68
2022/06/24 08:54:16;;;;;;;23.63;14.90;;;;;;;19.95;100.00;100526.00;5053045;28;20043;-68
2022/06/24 08:56:42;;;;;;;23.52;14.82;;;;;;;20.10;100.00;100525.41;5053183;28;20040;-67
2022/06/24 08:59:07;;;;;;;24.65;15.88;;;;;;;20.19;100.00;100511.59;5053166;28;20041;-73
2022/06/24 09:01:39;;;;;;;24.00;15.75;;;;;;;20.80;100.00;100522.56;5053111;28;20464;-75
2022/06/24 09:04:04;;;;;;;23.60;15.10;;;;;;;21.26;100.00;100520.53;5051698;28;20060;-70
2022/06/24 09:06:36;;;;;;;24.00;15.02;;;;;;;21.16;100.00;100533.50;5053466;28;20075;-73
2022/06/24 09:09:02;;;;;;;24.60;16.27;;;;;;;20.83;100.00;100530.47;5050081;28;20031;-67
2022/06/24 09:11:35;;;;;;;24.25;15.68;;;;;;;20.75;100.00;100520.09;5052441;28;20033;-70
2022/06/24 09:14:00;;;;;;;24.92;15.98;;;;;;;20.71;100.00;100526.50;5048253;28;20120;-69
2022/06/24 09:16:26;;;;;;;25.42;16.45;;;;;;;20.74;100.00;100523.69;5053166;28;20132;-70
2022/06/24 09:18:54;;;;;;;24.73;17.50;;;;;;;20.81;100.00;100524.28;5052467;28;20474;-69
2022/06/24 09:21:25;;;;;;;26.65;19.42;;;;;;;20.88;100.00;100523.97;5052494;28;20099;-73
2022/06/24 09:23:52;;;;;;;27.17;19.95;;;;;;;21.44;100.00;100524.19;5052592;28;20383;-79
2022/06/24 09:26:27;;;;;;;28.67;21.30;;;;;;;21.67;100.00;100524.94;5052776;28;20027;-72
2022/06/24 09:28:56;;;;;;;28.52;20.92;;;;;;;21.83;100.00;100531.34;5051974;28;20025;-79
2022/06/24 09:31:24;;;;;;;29.08;21.52;;;;;;;22.23;100.00;100524.03;5049225;28;20541;-72
2022/06/24 09:33:50;;;;;;;27.80;20.85;;;;;;;22.50;100.00;100520.97;5052717;28;20070;-74
2022/06/24 09:36:16;;;;;;;28.20;21.30;;;;;;;22.58;100.00;100516.03;5052144;28;20032;-68
2022/06/24 09:39:03;;;;;;;29.15;20.80;;;;;;;22.88;100.00;100520.81;5052531;28;20067;-68
2022/06/24 09:41:29;;;;;;;26.08;17.77;;;;;;;23.21;100.00;100521.81;5051743;28;20032;-68
2022/06/24 09:43:59;;;;;;;25.80;17.73;;;;;;;23.10;100.00;100514.28;5052199;28;20025;-68
2022/06/24 09:46:25;;;;;;;26.92;18.92;;;;;;;23.22;100.00;100523.56;5050883;28;20029;-68
2022/06/24 09:49:00;;;;;;;27.48;18.98;;;;;;;23.24;100.00;100527.94;5051677;28;20442;-68
2022/06/24 09:51:27;;;;;;;25.95;18.27;;;;;;;23.56;100.00;100510.94;5052416;28;20033;-65
2022/06/24 09:53:54;;;;;;;24.00;15.20;;;;;;;23.72;100.00;100516.34;5051158;28;20438;-64
2022/06/24 09:56:20;;;;;;;22.05;12.20;;;;;;;23.67;100.00;100516.63;5051719;28;20035;-65
2022/06/24 10:00:40;;;;;;;21.90;12.75;;;;;;;23.63;100.00;100507.81;5052507;28;20021;-67
2022/06/24 10:01:34;;;;;;;22.10;13.13;;;;;;;23.01;100.00;100515.66;5053142;28;20041;-66
2022/06/24 10:04:02;;;;;;;22.27;12.57;;;;;;;22.35;100.00;100524.41;5053737;28;20423;-63
2022/06/24 10:06:31;;;;;;;21.27;12.27;;;;;;;21.96;100.00;100518.19;5053897;28;20060;-66
2022/06/24 10:09:01;;;;;;;22.90;13.45;;;;;;;20.99;100.00;100522.63;5049822;28;20021;-65
2022/06/24 10:11:27;;;;;;;24.15;15.50;;;;;;;19.89;100.00;100516.38;5050111;28;20044;-64
2022/06/24 10:13:54;;;;;;;26.88;16.80;;;;;;;19.55;100.00;100517.69;5053470;28;20028;-68
2022/06/24 10:16:20;;;;;;;26.17;18.70;;;;;;;19.72;100.00;100508.09;5053698;28;20044;-67
2022/06/24 10:18:49;;;;;;;25.95;19.17;;;;;;;20.22;100.00;100515.97;5053421;28;20032;-64
2022/06/24 10:21:17;;;;;;;26.27;17.73;;;;;;;19.93;100.00;100525.22;5053477;28;20066;-63
2022/06/24 10:23:46;;;;;;;27.40;19.88;;;;;;;19.45;100.00;100535.91;5053549;28;20029;-63
2022/06/24 10:26:32;;;;;;;26.83;19.73;;;;;;;19.24;100.00;100552.81;5053395;28;20479;-63
2022/06/24 10:29:03;;;;;;;20.30;7.25;;;;;;;18.07;100.00;100550.44;5049657;28;20067;-64
2022/06/24 10:31:37;;;;;;;29.20;7.30;;;;;;;16.56;100.00;100583.94;5049322;28;20091;-65
2022/06/24 10:34:02;;;;;;;23.20;7.88;;;;;;;15.77;100.00;100569.72;5050117;28;20052;-67
2022/06/24 10:36:31;;;;;;;27.33;9.15;;;;;;;15.77;100.00;100571.50;5053124;28;20044;-65
2022/06/24 10:39:08;;;;;;;21.92;8.90;;;;;;;15.67;100.00;100577.03;5049597;28;20029;-65
2022/06/24 10:41:38;;;;;;;23.17;8.73;;;;;;;15.69;100.00;100577.84;5050407;28;20104;-67
2022/06/24 10:44:29;;;;;;;21.10;8.55;;;;;;;15.76;100.00;100565.28;5052824;28;20029;-67
2022/06/24 10:47:19;;;;;;;21.70;9.10;;;;;;;15.92;100.00;100565.88;5049194;28;20414;-65
2022/06/24 10:49:54;;;;;;;23.48;10.57;;;;;;;16.15;100.00;100561.78;5025299;28;20137;-64
2022/06/24 10:52:55;;;;;;;24.13;10.80;;;;;;;16.09;100.00;100569.94;5030581;28;20049;-67
2022/06/24 10:55:21;;;;;;;25.83;12.25;;;;;;;16.22;100.00;100571.41;5030941;28;20049;-63
2022/06/24 10:57:57;;;;;;;28.67;14.43;;;;;;;16.20;100.00;100568.78;5030653;28;20029;-66
2022/06/24 11:00:29;;;;;;;30.73;15.43;;;;;;;16.38;100.00;100564.81;5030637;28;20500;-66
2022/06/24 11:03:12;;;;;;;28.33;13.63;;;;;;;16.37;100.00;100557.72;5030684;28;20029;-63
2022/06/24 11:05:41;;;;;;;;;;;;;;;16.42;100.00;100559.41;5028785;28;20068;-66
2022/06/24 11:08:14;;;;;;;24.50;11.48;;;;;;;16.46;100.00;100550.41;5030533;28;19955;-64
2022/06/24 11:10:41;;;;;;;23.42;10.95;;;;;;;16.47;100.00;100546.81;5030509;28;20037;-63
2022/06/24 11:13:06;;;;;;;19.85;7.95;;;;;;;16.31;100.00;100541.88;5030364;28;20045;-66